Guilderland Center, NY (12085)

7:12 AM EST on February 11, 2016 (GMT -0500)
Altamont, NY | | Change Station
CLOSE
Current Station
Personal Weather Station
Location: Altamont, NY
Elevation: 364 ft
Nearby Weather Stations

Elev 364 ft 42.71 °N, 74.02 °W | Updated 53 seconds ago

Overcast
Overcast
17.8 °F
Feels Like 13 °F
N
3.4
Wind Variable Wind from West
Gusts 5.1 mph

Today
High -- | Low -- °F
--% Chance of Precip.
Yesterday
High -- | Low -- °F
Precip. -- in
Pressure 29.79 in
Visibility 10.0 miles
Clouds Few 3900 ft
Mostly Cloudy 7500 ft
Overcast 9000 ft
Windchill 13 °F
Dew Point -5 °F
Humidity 35%
Rainfall 0.00 in
Snow Depth Not available.
6:58 AM 5:21 PM
Waxing Crescent, 11% visible
METAR KALB 111151Z 27012G17KT 10SM FEW039 BKN075 OVC090 M07/M14 A2978 RMK AO2 SNE1055 SLP087 4/001 P0000 60000 T10671139 11028 21067 53018
Pressure 29.79 in
Visibility 10.0 miles
Clouds Few 3900 ft
Mostly Cloudy 7500 ft
Overcast 9000 ft
Windchill 13 °F
Dew Point -5 °F
Humidity 35%
Rainfall 0.00 in
Snow Depth Not available.
6:58 AM 5:21 PM
Waxing Crescent, 11% visible
METAR KALB 111151Z 27012G17KT 10SM FEW039 BKN075 OVC090 M07/M14 A2978 RMK AO2 SNE1055 SLP087 4/001 P0000 60000 T10671139 11028 21067 53018

10-Day Weather Forecast

Almanac

Astronomy

Feb. 11, 2016 Rise Set
Actual Time
Civil Twilight
Nautical Twilight
Astronomical Twilight
Moon
Length of Visible Light
Length of Day
Tomorrow will be .
, % of the Moon is Illuminated

Today's Extremes

State Highs State Lows

Community

WunderPhotos

Upload Photos

1,892,035 photos uploaded!

WunderBlog® & News

Nearby

Air Quality

  Air Quality AQ Index Pollutant
Not available.

Snow Depth

Station Depth Elevation

Earthquake Activity

City Distance Mag. Time & Date
Minimum magnitude displayed is 2.5.

Coastal Water Temperatures

Place Temperature

Stations

Nearby Weather Stations

Station Location Temp. Windchill Dew Point Humidity Wind Precip. Elev Updated Type
                   

Watches & Warnings

There are currently no watches in effect.